createdAt,value
2022-10-20T00:01:15.076Z,5.90
2022-10-20T00:03:45.498Z,5.87
2022-10-20T00:06:17.599Z,5.83
2022-10-20T00:08:46.976Z,5.82
2022-10-20T00:11:16.601Z,5.76
2022-10-20T00:13:46.286Z,5.77
2022-10-20T00:16:15.090Z,5.76
2022-10-20T00:18:48.867Z,5.74
2022-10-20T00:21:18.521Z,5.76
2022-10-20T00:23:46.911Z,5.71
2022-10-20T00:26:18.260Z,5.70
2022-10-20T00:28:47.287Z,5.69
2022-10-20T00:31:15.911Z,5.62
2022-10-20T00:33:45.212Z,5.60
2022-10-20T00:36:15.387Z,5.55
2022-10-20T00:38:43.980Z,5.57
2022-10-20T00:41:13.667Z,5.52
2022-10-20T00:43:47.759Z,5.47
2022-10-20T00:46:18.777Z,5.42
2022-10-20T00:48:52.738Z,5.42
2022-10-20T00:51:23.071Z,5.46
2022-10-20T00:53:54.357Z,5.47
2022-10-20T00:56:23.903Z,5.45
2022-10-20T00:58:52.086Z,5.39
2022-10-20T01:01:22.665Z,5.36
2022-10-20T01:03:52.733Z,5.35
2022-10-20T01:06:27.998Z,5.32
2022-10-20T01:09:13.094Z,5.32
2022-10-20T01:11:44.028Z,5.28
2022-10-20T01:14:23.644Z,5.26
2022-10-20T01:16:56.722Z,5.21
2022-10-20T01:19:53.712Z,5.18
2022-10-20T01:22:41.035Z,5.16
2022-10-20T01:25:18.350Z,5.14
2022-10-20T01:27:48.504Z,5.11
2022-10-20T01:30:18.736Z,5.09
2022-10-20T01:32:56.642Z,5.09
2022-10-20T01:35:37.323Z,5.08
2022-10-20T01:38:13.256Z,5.03
2022-10-20T01:40:45.582Z,5.07
2022-10-20T01:43:15.320Z,5.03
2022-10-20T01:45:46.041Z,5.05
2022-10-20T01:48:15.614Z,5.01
2022-10-20T01:50:44.443Z,5.03
2022-10-20T01:53:12.611Z,4.99
2022-10-20T01:55:42.815Z,4.98
2022-10-20T01:58:21.720Z,4.98
2022-10-20T02:00:51.020Z,4.95
2022-10-20T02:03:31.301Z,4.97
2022-10-20T02:06:12.999Z,4.97
2022-10-20T02:08:46.717Z,4.95
2022-10-20T02:11:23.106Z,4.97
2022-10-20T02:13:53.224Z,4.94
2022-10-20T02:16:24.905Z,4.92
2022-10-20T02:18:53.228Z,4.94
2022-10-20T02:21:22.027Z,4.88
2022-10-20T02:23:51.313Z,4.87
2022-10-20T02:26:21.392Z,4.85
2022-10-20T02:28:54.718Z,4.84
2022-10-20T02:31:26.067Z,4.80
2022-10-20T02:33:56.782Z,4.80
2022-10-20T02:36:30.252Z,4.76
2022-10-20T02:38:58.229Z,4.77
2022-10-20T02:41:26.816Z,4.76
2022-10-20T02:43:56.086Z,4.76
2022-10-20T02:46:24.228Z,4.73
2022-10-20T02:48:52.227Z,4.73
2022-10-20T02:51:20.501Z,4.70
2022-10-20T02:53:49.840Z,4.68
2022-10-20T02:56:17.890Z,4.66
2022-10-20T02:58:46.038Z,4.64
2022-10-20T03:01:16.304Z,4.64
2022-10-20T03:03:44.414Z,4.63
2022-10-20T03:06:14.057Z,4.60
2022-10-20T03:08:43.158Z,4.61
2022-10-20T03:11:11.337Z,4.63
2022-10-20T03:13:39.390Z,4.60
2022-10-20T03:16:07.842Z,4.61
2022-10-20T03:18:37.319Z,4.57
2022-10-20T03:21:05.450Z,4.54
2022-10-20T03:23:33.624Z,4.56
2022-10-20T03:26:05.368Z,4.57
2022-10-20T03:28:33.897Z,4.57
2022-10-20T03:31:01.920Z,4.59
2022-10-20T03:33:31.313Z,4.57
2022-10-20T03:36:01.625Z,4.59
2022-10-20T03:38:29.607Z,4.57
2022-10-20T03:40:57.710Z,4.59
2022-10-20T03:43:26.237Z,4.56
2022-10-20T03:46:02.955Z,4.56
2022-10-20T03:48:31.443Z,4.53
2022-10-20T03:51:03.648Z,4.50
2022-10-20T03:53:32.227Z,4.49
2022-10-20T03:56:02.267Z,4.47
2022-10-20T03:58:30.517Z,4.46
2022-10-20T04:00:58.829Z,4.43
2022-10-20T04:03:26.999Z,4.40
2022-10-20T04:05:57.377Z,4.36
2022-10-20T04:08:26.978Z,4.35
2022-10-20T04:10:55.259Z,4.26
2022-10-20T04:13:23.325Z,4.26
2022-10-20T04:15:51.518Z,4.26
2022-10-20T04:18:20.852Z,4.22
2022-10-20T04:20:49.455Z,4.19
2022-10-20T04:23:17.734Z,4.16
2022-10-20T04:25:48.655Z,4.16
2022-10-20T04:28:18.618Z,4.18
2022-10-20T04:30:49.209Z,4.16
2022-10-20T04:33:18.105Z,4.19
2022-10-20T04:35:46.396Z,4.16
2022-10-20T04:38:14.494Z,4.16
2022-10-20T04:40:42.664Z,4.16
2022-10-20T04:43:12.053Z,4.13
2022-10-20T04:45:41.819Z,4.18
2022-10-20T04:48:09.786Z,4.13
2022-10-20T04:50:37.825Z,4.20
2022-10-20T04:53:06.119Z,4.60
2022-10-20T04:55:36.848Z,4.68
2022-10-20T04:58:05.340Z,4.63
2022-10-20T05:00:34.878Z,4.59
2022-10-20T05:03:04.982Z,4.77
2022-10-20T05:05:33.625Z,4.78
2022-10-20T05:08:01.777Z,4.81
2022-10-20T05:10:33.162Z,4.76
2022-10-20T05:13:04.725Z,4.76
2022-10-20T05:15:34.126Z,4.73
2022-10-20T05:18:02.195Z,4.74
2022-10-20T05:20:36.773Z,4.76
2022-10-20T05:23:14.017Z,4.57
2022-10-20T05:25:42.175Z,4.45
2022-10-20T05:28:10.494Z,4.36
2022-10-20T05:30:40.004Z,4.29
2022-10-20T05:33:08.475Z,4.28
2022-10-20T05:35:36.557Z,4.22
2022-10-20T05:38:04.527Z,4.20
2022-10-20T05:40:32.760Z,4.16
2022-10-20T05:43:03.657Z,4.12
2022-10-20T05:45:31.581Z,4.10
2022-10-20T05:48:01.007Z,4.12
2022-10-20T05:50:28.969Z,4.10
2022-10-20T05:52:57.641Z,4.12
2022-10-20T05:55:25.863Z,4.18
2022-10-20T05:57:55.605Z,4.20
2022-10-20T06:00:30.596Z,4.23
2022-10-20T06:02:58.759Z,4.32
2022-10-20T06:05:28.073Z,4.29
2022-10-20T06:07:56.284Z,4.38
2022-10-20T06:10:24.631Z,4.39
2022-10-20T06:12:52.614Z,4.47
2022-10-20T06:15:20.802Z,4.47
2022-10-20T06:17:50.419Z,4.50
2022-10-20T06:20:18.552Z,4.60
2022-10-20T06:22:48.434Z,4.74
2022-10-20T06:25:16.632Z,4.73
2022-10-20T06:27:45.233Z,4.73
2022-10-20T06:30:14.302Z,4.87
2022-10-20T06:32:42.404Z,5.03
2022-10-20T06:35:10.419Z,5.25
2022-10-20T06:37:39.887Z,5.47
2022-10-20T06:40:11.958Z,5.67
2022-10-20T06:42:40.137Z,5.86
2022-10-20T06:45:10.105Z,6.04
2022-10-20T06:47:39.052Z,6.18
2022-10-20T06:50:09.888Z,6.29
2022-10-20T06:52:38.990Z,6.45
2022-10-20T06:55:13.297Z,6.69
2022-10-20T06:57:42.610Z,6.92
2022-10-20T07:00:11.537Z,7.08
2022-10-20T07:02:40.571Z,7.35
2022-10-20T07:05:09.322Z,7.52
2022-10-20T07:07:37.372Z,7.47
2022-10-20T07:10:06.153Z,7.61
2022-10-20T07:12:36.227Z,7.66
2022-10-20T07:15:06.537Z,7.59
2022-10-20T07:17:35.068Z,7.50
2022-10-20T07:20:04.499Z,7.56
2022-10-20T07:22:33.726Z,7.66
2022-10-20T07:25:06.294Z,7.83
2022-10-20T07:27:44.555Z,7.94
2022-10-20T07:30:13.775Z,7.99
2022-10-20T07:32:42.190Z,8.09
2022-10-20T07:35:10.704Z,8.09
2022-10-20T07:37:39.964Z,8.23
2022-10-20T07:40:08.943Z,8.29
2022-10-20T07:42:38.862Z,8.58
2022-10-20T07:45:08.609Z,8.75
2022-10-20T07:47:38.636Z,8.89
2022-10-20T07:50:08.990Z,9.00
2022-10-20T07:52:37.398Z,9.19
2022-10-20T07:55:17.659Z,9.29
2022-10-20T07:57:53.746Z,9.34
2022-10-20T08:00:22.140Z,9.40
2022-10-20T08:02:50.815Z,9.64
2022-10-20T08:05:19.104Z,9.82
2022-10-20T08:07:47.740Z,9.88
2022-10-20T08:10:15.998Z,9.98
2022-10-20T08:12:43.965Z,10.16
2022-10-20T08:15:14.410Z,10.30
2022-10-20T08:17:45.414Z,10.37
2022-10-20T08:20:14.817Z,10.42
2022-10-20T08:22:42.846Z,10.59
2022-10-20T08:25:11.981Z,10.77
2022-10-20T08:27:40.176Z,10.88
2022-10-20T08:30:24.642Z,10.92
2022-10-20T08:32:56.558Z,10.92
2022-10-20T08:35:24.677Z,11.10
2022-10-20T08:37:52.892Z,11.12
2022-10-20T08:40:23.303Z,11.19
2022-10-20T08:42:52.176Z,11.25
2022-10-20T08:45:22.701Z,11.15
2022-10-20T08:47:52.112Z,11.02
2022-10-20T08:50:22.397Z,11.01
2022-10-20T08:52:54.988Z,10.98
2022-10-20T08:55:27.731Z,11.07
2022-10-20T08:58:00.378Z,11.15
2022-10-20T09:00:31.026Z,11.29
2022-10-20T09:03:03.352Z,11.28
2022-10-20T09:05:33.437Z,11.38
2022-10-20T09:08:01.421Z,11.35
2022-10-20T09:10:36.690Z,11.36
2022-10-20T09:13:09.842Z,11.29
2022-10-20T09:15:40.202Z,11.39
2022-10-20T09:18:11.973Z,11.46
2022-10-20T09:20:47.499Z,11.62
2022-10-20T09:23:39.553Z,11.63
2022-10-20T09:26:04.018Z,11.76
2022-10-20T09:28:38.486Z,11.93
2022-10-20T09:31:24.757Z,11.94
2022-10-20T09:33:53.027Z,12.01
2022-10-20T09:36:22.673Z,12.08
2022-10-20T09:38:52.720Z,12.18
2022-10-20T09:41:23.064Z,12.15
2022-10-20T09:43:57.148Z,12.22
2022-10-20T09:46:28.388Z,12.18
2022-10-20T09:48:56.960Z,12.25
2022-10-20T09:51:27.813Z,12.35
2022-10-20T09:53:59.608Z,12.42
2022-10-20T09:56:32.839Z,12.51
2022-10-20T09:59:02.768Z,12.56
2022-10-20T10:01:31.264Z,12.53
2022-10-20T10:04:02.038Z,12.58
2022-10-20T10:06:36.198Z,12.65
2022-10-20T10:11:58.841Z,13.41
2022-10-20T10:14:31.874Z,13.41
2022-10-20T10:17:00.252Z,13.51
2022-10-20T10:19:31.861Z,13.51
2022-10-20T10:22:02.636Z,13.70
2022-10-20T10:24:40.594Z,13.85
2022-10-20T10:27:24.510Z,14.13
2022-10-20T10:29:54.880Z,14.16
2022-10-20T10:32:26.904Z,13.98
2022-10-20T10:35:11.196Z,13.93
2022-10-20T10:37:43.400Z,13.68
2022-10-20T10:40:17.169Z,13.62
2022-10-20T10:42:55.026Z,13.69
2022-10-20T10:45:34.840Z,13.99
2022-10-20T10:48:22.240Z,14.26
2022-10-20T10:50:53.141Z,14.34
2022-10-20T10:53:30.285Z,14.48
2022-10-20T10:56:06.277Z,14.69
2022-10-20T10:58:43.285Z,14.50
2022-10-20T11:01:21.306Z,14.75
2022-10-20T11:04:03.985Z,14.56
2022-10-20T11:06:38.181Z,14.33
2022-10-20T11:09:22.844Z,14.40
2022-10-20T11:12:09.215Z,14.47
2022-10-20T11:14:48.692Z,14.33
2022-10-20T11:17:26.684Z,14.27
2022-10-20T11:20:11.307Z,14.38
2022-10-20T11:22:46.629Z,14.37
2022-10-20T11:25:27.837Z,14.14
2022-10-20T11:27:57.350Z,14.14
2022-10-20T11:30:27.464Z,14.13
2022-10-20T11:32:59.452Z,14.06
2022-10-20T11:35:35.835Z,14.02
2022-10-20T11:38:14.616Z,13.99
2022-10-20T11:40:46.226Z,13.95
2022-10-20T11:43:18.771Z,14.00
2022-10-20T11:45:50.964Z,14.06
2022-10-20T11:48:24.031Z,14.12
2022-10-20T11:51:02.797Z,14.06
2022-10-20T11:53:54.951Z,14.13
2022-10-20T11:56:32.096Z,14.16
2022-10-20T11:59:15.244Z,14.16
2022-10-20T12:01:59.960Z,14.16
2022-10-20T12:04:40.914Z,14.37
2022-10-20T12:07:23.181Z,14.75
2022-10-20T12:09:58.066Z,14.91
2022-10-20T12:12:32.242Z,15.02
2022-10-20T12:15:02.360Z,15.12
2022-10-20T12:17:36.633Z,15.13
2022-10-20T12:21:00.870Z,15.13
2022-10-20T12:24:03.205Z,15.10
2022-10-20T12:27:16.701Z,15.12
2022-10-20T12:29:52.944Z,14.96
2022-10-20T12:32:40.639Z,14.89
2022-10-20T12:35:42.462Z,14.77
2022-10-20T12:38:17.371Z,14.67
2022-10-20T12:40:50.723Z,14.64
2022-10-20T12:43:27.898Z,14.47
2022-10-20T12:45:59.126Z,14.40
2022-10-20T12:48:27.638Z,14.31
2022-10-20T12:51:04.464Z,14.36
2022-10-20T12:53:34.251Z,14.26
2022-10-20T12:56:06.048Z,14.00
2022-10-20T12:58:36.356Z,13.88
2022-10-20T13:01:11.950Z,13.90
2022-10-20T13:03:46.956Z,13.88
2022-10-20T13:06:40.745Z,13.89
2022-10-20T13:09:23.001Z,13.88
2022-10-20T13:12:14.326Z,13.82
2022-10-20T13:14:50.768Z,13.78
2022-10-20T13:17:36.994Z,13.86
2022-10-20T13:20:20.725Z,13.92
2022-10-20T13:22:52.780Z,13.90
2022-10-20T13:25:33.600Z,13.95
2022-10-20T13:28:15.363Z,13.98
2022-10-20T13:31:00.123Z,14.00
2022-10-20T13:33:44.748Z,14.00
2022-10-20T13:36:27.414Z,13.98
2022-10-20T13:39:00.088Z,14.00
2022-10-20T13:41:34.230Z,14.06
2022-10-20T13:44:11.043Z,14.07
2022-10-20T13:46:53.109Z,14.05
2022-10-20T13:49:42.458Z,14.06
2022-10-20T13:52:14.878Z,14.03
2022-10-20T13:54:47.041Z,13.99
2022-10-20T13:57:23.846Z,13.98
2022-10-20T14:00:03.690Z,13.96
2022-10-20T14:02:35.395Z,13.93
2022-10-20T14:05:08.798Z,13.90
2022-10-20T14:07:38.758Z,13.88
2022-10-20T14:10:20.530Z,13.89
2022-10-20T14:12:48.779Z,13.85
2022-10-20T14:15:22.692Z,13.88
2022-10-20T14:17:59.092Z,13.89
2022-10-20T14:20:29.307Z,13.90
2022-10-20T14:22:59.567Z,13.90
2022-10-20T14:25:31.466Z,13.92
2022-10-20T14:28:02.784Z,13.90
2022-10-20T14:30:35.389Z,13.88
2022-10-20T14:33:08.316Z,13.89
2022-10-20T14:35:40.855Z,13.86
2022-10-20T14:38:18.004Z,13.85
2022-10-20T14:40:52.754Z,13.86
2022-10-20T14:43:24.490Z,13.81
2022-10-20T14:45:54.137Z,13.79
2022-10-20T14:48:25.364Z,13.76
2022-10-20T14:50:54.177Z,13.75
2022-10-20T14:53:31.875Z,13.69
2022-10-20T14:56:02.639Z,13.68
2022-10-20T14:58:34.121Z,13.66
2022-10-20T15:01:28.452Z,13.65
2022-10-20T15:04:15.686Z,13.62
2022-10-20T15:06:44.148Z,13.58
2022-10-20T15:09:20.022Z,13.55
2022-10-20T15:11:48.451Z,13.51
2022-10-20T15:14:18.001Z,13.45
2022-10-20T15:16:49.570Z,13.44
2022-10-20T15:19:39.968Z,13.42
2022-10-20T15:24:41.927Z,13.26
2022-10-20T15:27:15.584Z,13.23
2022-10-20T15:29:49.900Z,13.14
2022-10-20T15:32:18.436Z,13.07
2022-10-20T15:34:47.844Z,13.03
2022-10-20T15:37:16.471Z,13.00
2022-10-20T15:39:44.715Z,12.90
2022-10-20T15:42:12.979Z,12.84
2022-10-20T15:44:41.060Z,12.76
2022-10-20T15:47:10.104Z,12.70
2022-10-20T15:49:38.468Z,12.66
2022-10-20T15:52:09.453Z,12.53
2022-10-20T15:54:37.637Z,12.46
2022-10-20T15:57:05.792Z,12.35
2022-10-20T15:59:34.160Z,12.25
2022-10-20T16:02:02.253Z,12.15
2022-10-20T16:04:31.785Z,12.04
2022-10-20T16:07:02.846Z,11.97
2022-10-20T16:09:32.717Z,11.90
2022-10-20T16:12:00.803Z,11.80
2022-10-20T16:14:28.981Z,11.73
2022-10-20T16:17:02.367Z,11.64
2022-10-20T16:19:30.476Z,11.60
2022-10-20T16:21:58.840Z,11.57
2022-10-20T16:24:27.261Z,11.49
2022-10-20T16:26:57.544Z,11.42
2022-10-20T16:29:25.957Z,11.35
2022-10-20T16:31:54.275Z,11.26
2022-10-20T16:34:23.540Z,11.21
2022-10-20T16:36:53.462Z,11.14
2022-10-20T16:39:21.643Z,11.11
2022-10-20T16:41:51.592Z,11.05
2022-10-20T16:44:21.186Z,11.04
2022-10-20T16:46:49.169Z,11.02
2022-10-20T16:49:17.733Z,10.98
2022-10-20T16:51:46.757Z,10.97
2022-10-20T16:54:17.519Z,10.94
2022-10-20T16:56:46.270Z,10.95
2022-10-20T16:59:14.583Z,10.91
2022-10-20T17:01:47.505Z,10.91
2022-10-20T17:04:15.793Z,10.87
2022-10-20T17:06:44.047Z,10.83
2022-10-20T17:09:13.219Z,10.77
2022-10-20T17:11:41.763Z,10.68
2022-10-20T17:14:10.227Z,10.67
2022-10-20T17:16:40.245Z,10.60
2022-10-20T17:19:10.359Z,10.61
2022-10-20T17:21:41.442Z,10.59
2022-10-20T17:24:11.943Z,10.52
2022-10-20T17:26:40.744Z,10.52
2022-10-20T17:29:09.608Z,10.47
2022-10-20T17:31:38.859Z,10.43
2022-10-20T17:34:06.943Z,10.40
2022-10-20T17:36:37.685Z,10.39
2022-10-20T17:39:08.508Z,10.32
2022-10-20T17:41:37.184Z,10.27
2022-10-20T17:44:07.777Z,10.23
2022-10-20T17:46:36.464Z,10.18
2022-10-20T17:49:04.671Z,10.19
2022-10-20T17:51:34.751Z,10.15
2022-10-20T17:54:06.079Z,10.15
2022-10-20T17:56:36.540Z,10.13
2022-10-20T17:59:06.544Z,10.09
2022-10-20T18:01:37.965Z,10.09
2022-10-20T18:04:09.041Z,10.08
2022-10-20T18:06:37.756Z,10.05
2022-10-20T18:09:10.989Z,10.03
2022-10-20T18:11:41.365Z,10.01
2022-10-20T18:14:10.318Z,10.02
2022-10-20T18:16:39.615Z,9.98
2022-10-20T18:19:09.319Z,9.94
2022-10-20T18:21:37.297Z,9.91
2022-10-20T18:24:09.250Z,9.87
2022-10-20T18:26:38.014Z,9.82
2022-10-20T18:29:09.253Z,9.78
2022-10-20T18:31:39.036Z,9.79
2022-10-20T18:34:08.978Z,9.78
2022-10-20T18:36:40.593Z,9.77
2022-10-20T18:39:13.579Z,9.74
2022-10-20T18:41:43.174Z,9.74
2022-10-20T18:44:13.352Z,9.75
2022-10-20T18:46:42.464Z,9.70
2022-10-20T18:49:15.808Z,9.68
2022-10-20T18:51:48.224Z,9.62
2022-10-20T18:54:19.228Z,9.62
2022-10-20T18:56:52.441Z,9.62
2022-10-20T18:59:21.583Z,9.58
2022-10-20T19:01:53.261Z,9.54
2022-10-20T19:04:21.382Z,9.55
2022-10-20T19:06:49.637Z,9.54
2022-10-20T19:09:22.601Z,9.51
2022-10-20T19:11:53.054Z,9.44
2022-10-20T19:14:22.242Z,9.40
2022-10-20T19:16:52.127Z,9.36
2022-10-20T19:19:20.925Z,9.33
2022-10-20T19:21:50.147Z,9.29
2022-10-20T19:24:24.485Z,9.24
2022-10-20T19:27:24.576Z,9.20
2022-10-20T19:29:47.217Z,9.18
2022-10-20T19:32:17.843Z,9.18
2022-10-20T19:35:00.140Z,9.16
2022-10-20T19:37:28.202Z,9.10
2022-10-20T19:39:59.992Z,9.06
2022-10-20T19:42:28.033Z,9.03
2022-10-20T19:44:56.700Z,8.98
2022-10-20T19:47:27.523Z,8.92
2022-10-20T19:49:55.558Z,8.93
2022-10-20T19:52:23.963Z,8.93
2022-10-20T19:54:52.429Z,8.89
2022-10-20T19:57:22.172Z,8.83
2022-10-20T19:59:50.155Z,8.83
2022-10-20T20:02:18.388Z,8.83
2022-10-20T20:04:47.259Z,8.79
2022-10-20T20:09:51.676Z,8.72
2022-10-20T20:12:23.033Z,8.72
2022-10-20T20:14:51.068Z,8.69
2022-10-20T20:17:19.128Z,8.71
2022-10-20T20:19:47.099Z,8.71
2022-10-20T20:22:15.846Z,8.72
2022-10-20T20:24:43.912Z,8.69
2022-10-20T20:27:11.958Z,8.68
2022-10-20T20:29:41.712Z,8.68
2022-10-20T20:32:11.165Z,8.67
2022-10-20T20:34:39.308Z,8.64
2022-10-20T20:39:49.446Z,8.60
2022-10-20T20:42:18.970Z,8.60
2022-10-20T20:44:48.547Z,8.61
2022-10-20T20:47:16.882Z,8.62
2022-10-20T20:49:45.343Z,8.60
2022-10-20T20:52:13.547Z,8.62
2022-10-20T20:54:41.735Z,8.62
2022-10-20T20:57:11.099Z,8.65
2022-10-20T20:59:41.992Z,8.69
2022-10-20T21:02:14.970Z,8.71
2022-10-20T21:04:43.477Z,8.72
2022-10-20T21:07:13.319Z,8.72
2022-10-20T21:09:41.594Z,8.76
2022-10-20T21:12:09.655Z,8.78
2022-10-20T21:14:39.404Z,8.79
2022-10-20T21:17:08.154Z,8.85
2022-10-20T21:19:38.375Z,8.81
2022-10-20T21:22:07.405Z,8.82
2022-10-20T21:24:35.597Z,8.85
2022-10-20T21:27:04.129Z,8.85
2022-10-20T21:29:33.826Z,8.88
2022-10-20T21:32:01.803Z,8.88
2022-10-20T21:34:31.151Z,8.89
2022-10-20T21:37:01.475Z,8.90
2022-10-20T21:41:57.612Z,8.98
2022-10-20T21:44:25.843Z,8.96
2022-10-20T21:46:53.952Z,8.93
2022-10-20T21:49:26.152Z,8.89
2022-10-20T21:51:55.856Z,8.89
2022-10-20T21:54:26.661Z,8.86
2022-10-20T21:56:56.085Z,8.82
2022-10-20T21:59:26.543Z,8.76
2022-10-20T22:01:55.831Z,8.75
2022-10-20T22:04:26.626Z,8.71
2022-10-20T22:06:55.204Z,8.67
2022-10-20T22:09:24.917Z,8.60
2022-10-20T22:11:59.090Z,8.58
2022-10-20T22:14:28.149Z,8.55
2022-10-20T22:16:56.755Z,8.48
2022-10-20T22:19:26.705Z,8.51
2022-10-20T22:21:55.189Z,8.44
2022-10-20T22:24:25.686Z,8.44
2022-10-20T22:26:54.709Z,8.40
2022-10-20T22:29:23.817Z,8.34
2022-10-20T22:31:52.151Z,8.38
2022-10-20T22:34:20.240Z,8.36
2022-10-20T22:36:48.667Z,8.36
2022-10-20T22:39:16.837Z,8.36
2022-10-20T22:41:46.244Z,8.36
2022-10-20T22:44:14.753Z,8.33
2022-10-20T22:46:43.588Z,8.36
2022-10-20T22:49:13.304Z,8.36
2022-10-20T22:51:41.298Z,8.36
2022-10-20T22:54:10.723Z,8.36
2022-10-20T22:56:38.789Z,8.33
2022-10-20T22:59:08.403Z,8.33
2022-10-20T23:01:39.407Z,8.29
2022-10-20T23:04:07.854Z,8.31
2022-10-20T23:06:35.949Z,8.33
2022-10-20T23:09:04.800Z,8.31
2022-10-20T23:11:36.143Z,8.31
2022-10-20T23:14:04.448Z,8.34
2022-10-20T23:16:33.893Z,8.33
2022-10-20T23:19:02.149Z,8.33
2022-10-20T23:21:30.170Z,8.34
2022-10-20T23:23:58.186Z,8.36
2022-10-20T23:26:26.323Z,8.37
2022-10-20T23:28:54.334Z,8.37
2022-10-20T23:31:23.785Z,8.40
2022-10-20T23:33:57.442Z,8.40
2022-10-20T23:36:26.154Z,8.36
2022-10-20T23:38:54.627Z,8.38
2022-10-20T23:41:22.957Z,8.38
2022-10-20T23:43:51.623Z,8.38
2022-10-20T23:46:19.798Z,8.40
2022-10-20T23:48:50.332Z,8.40
2022-10-20T23:51:22.245Z,8.37
2022-10-20T23:53:51.630Z,8.40
2022-10-20T23:56:21.265Z,8.37
2022-10-20T23:58:49.736Z,8.38
